createdAt,value
2018-11-20T01:02:20.475Z,6.15
2018-11-20T01:08:01.300Z,7.25
2018-11-20T01:09:43.579Z,8.40
2018-11-20T01:13:37.527Z,5.83
2018-11-20T01:15:19.814Z,5.55
2018-11-20T01:20:33.359Z,7.12
2018-11-20T01:22:15.637Z,6.47
2018-11-20T01:26:15.589Z,9.75
2018-11-20T01:32:14.370Z,3.42
2018-11-20T01:35:57.810Z,6.42
2018-11-20T01:37:56.319Z,10.65
2018-11-20T01:40:05.209Z,8.53
2018-11-20T01:43:58.423Z,7.92
2018-11-20T01:45:58.302Z,10.05
2018-11-20T01:50:13.457Z,11.22
2018-11-20T01:58:35.476Z,11.20
2018-11-20T02:00:17.762Z,9.80
2018-11-20T02:13:05.686Z,9.23
2018-11-20T02:56:11.372Z,11.80
2018-11-20T02:59:41.403Z,13.80
2018-11-20T03:01:16.599Z,12.58
2018-11-20T03:02:51.398Z,13.60
2018-11-20T03:11:04.066Z,12.95
2018-11-20T03:14:32.858Z,13.43
2018-11-20T03:39:23.364Z,16.52
2018-11-20T05:13:10.578Z,16.70
2018-11-20T05:23:29.394Z,17.20
2018-11-20T05:23:38.239Z,19.50
2018-11-20T07:13:09.116Z,19.05
2018-11-20T07:24:21.644Z,26.52
2018-11-20T07:25:50.608Z,23.12
2018-11-20T07:27:28.304Z,20.82
2018-11-20T07:28:52.272Z,24.90
2018-11-20T07:30:15.878Z,22.73
2018-11-20T07:31:41.793Z,18.48
2018-11-20T07:33:15.029Z,19.80
2018-11-20T07:34:44.410Z,21.12
2018-11-20T07:36:28.765Z,22.15
2018-11-20T07:37:49.516Z,17.73
2018-11-20T07:39:09.349Z,20.30
2018-11-20T07:40:29.333Z,20.97
2018-11-20T07:41:55.393Z,19.40
2018-11-20T07:43:21.661Z,16.20
2018-11-20T07:45:04.630Z,18.90
2018-11-20T07:46:37.968Z,22.17
2018-11-20T07:48:04.600Z,17.92
2018-11-20T07:49:33.742Z,15.95
2018-11-20T07:51:08.245Z,18.15
2018-11-20T07:53:55.169Z,14.83
2018-11-20T07:55:16.961Z,19.37
2018-11-20T07:56:40.647Z,13.18
2018-11-20T07:58:07.768Z,18.90
2018-11-20T07:59:30.457Z,16.90
2018-11-20T08:01:01.010Z,18.12
2018-11-20T08:02:25.994Z,22.30
2018-11-20T08:04:09.499Z,15.20
2018-11-20T08:05:55.544Z,18.60
2018-11-20T08:07:20.260Z,20.70
2018-11-20T08:08:50.875Z,17.85
2018-11-20T08:10:15.617Z,15.28
2018-11-20T08:11:55.534Z,19.40
2018-11-20T08:13:13.026Z,19.85
2018-11-20T08:15:04.211Z,20.45
2018-11-20T08:16:56.551Z,17.23
2018-11-20T08:18:23.150Z,18.40
2018-11-20T08:19:48.830Z,19.77
2018-11-20T08:21:12.307Z,18.10
2018-11-20T08:22:30.460Z,19.30
2018-11-20T08:24:04.543Z,14.68
2018-11-20T08:25:32.666Z,17.82
2018-11-20T08:27:00.662Z,20.62
2018-11-20T08:28:25.710Z,19.30
2018-11-20T08:30:07.277Z,11.53
2018-11-20T08:31:31.659Z,18.40
2018-11-20T08:33:11.291Z,20.02
2018-11-20T08:34:55.137Z,16.95
2018-11-20T08:36:34.264Z,19.67
2018-11-20T08:38:05.157Z,19.42
2018-11-20T08:41:02.470Z,17.80
2018-11-20T08:42:53.985Z,19.10
2018-11-20T08:44:18.869Z,18.62
2018-11-20T08:46:03.045Z,18.05
2018-11-20T08:47:28.551Z,16.80
2018-11-20T08:49:03.136Z,24.37
2018-11-20T08:50:33.857Z,15.13
2018-11-20T08:51:56.083Z,15.90
2018-11-20T08:53:34.299Z,18.87
2018-11-20T08:55:01.788Z,19.42
2018-11-20T08:56:33.214Z,19.77
2018-11-20T08:58:02.879Z,19.42
2018-11-20T08:59:39.956Z,17.35
2018-11-20T09:01:02.712Z,19.57
2018-11-20T09:02:27.392Z,23.73
2018-11-20T09:04:08.495Z,22.45
2018-11-20T09:05:42.870Z,19.37
2018-11-20T09:07:13.438Z,18.95
2018-11-20T09:08:38.131Z,17.12
2018-11-20T09:10:17.405Z,17.20
2018-11-20T09:11:52.127Z,17.82
2018-11-20T09:13:16.774Z,19.82
2018-11-20T09:14:41.867Z,18.55
2018-11-20T09:16:25.323Z,19.55
2018-11-20T09:17:54.269Z,17.20
2018-11-20T09:19:33.487Z,18.57
2018-11-20T09:21:05.882Z,18.67
2018-11-20T09:22:32.690Z,19.02
2018-11-20T09:24:15.135Z,17.32
2018-11-20T09:25:42.112Z,21.25
2018-11-20T09:27:14.015Z,20.60
2018-11-20T09:28:38.107Z,15.85
2018-11-20T09:30:15.694Z,15.18
2018-11-20T09:31:44.300Z,19.10
2018-11-20T09:33:08.120Z,17.00
2018-11-20T09:34:35.419Z,19.98
2018-11-20T09:35:57.096Z,18.92
2018-11-20T09:37:35.361Z,18.48
2018-11-20T09:39:16.396Z,17.90
2018-11-20T09:41:02.816Z,19.85
2018-11-20T09:42:31.745Z,18.05
2018-11-20T09:43:59.969Z,19.92
2018-11-20T09:45:56.905Z,16.80
2018-11-20T09:47:30.020Z,17.07
2018-11-20T09:49:12.840Z,19.00
2018-11-20T09:50:37.603Z,20.55
2018-11-20T09:52:01.247Z,19.00
2018-11-20T09:53:26.965Z,21.05
2018-11-20T09:54:58.369Z,21.07
2018-11-20T09:56:29.787Z,19.50
2018-11-20T09:58:03.908Z,18.55
2018-11-20T09:59:27.390Z,20.68
2018-11-20T10:00:53.644Z,18.15
2018-11-20T10:02:15.657Z,18.52
2018-11-20T10:03:53.733Z,19.60
2018-11-20T10:05:17.418Z,18.90
2018-11-20T10:06:44.006Z,16.35
2018-11-20T10:08:20.142Z,20.12
2018-11-20T10:09:49.720Z,19.30
2018-11-20T10:11:21.564Z,17.85
2018-11-20T10:14:21.509Z,18.35
2018-11-20T10:16:01.304Z,21.95
2018-11-20T10:17:24.941Z,23.10
2018-11-20T10:18:56.912Z,19.15
2018-11-20T10:20:29.043Z,23.98
2018-11-20T10:21:58.700Z,20.90
2018-11-20T10:23:39.449Z,19.70
2018-11-20T10:25:14.108Z,20.10
2018-11-20T10:26:35.916Z,20.55
2018-11-20T10:28:01.116Z,19.07
2018-11-20T10:29:48.413Z,18.82
2018-11-20T10:31:32.941Z,22.35
2018-11-20T10:32:59.671Z,24.35
2018-11-20T10:34:34.912Z,22.82
2018-11-20T10:36:16.326Z,24.55
2018-11-20T10:37:53.782Z,21.12
2018-11-20T10:39:23.036Z,20.10
2018-11-20T10:40:48.099Z,18.75
2018-11-20T10:42:13.170Z,20.52
2018-11-20T10:43:52.315Z,21.25
2018-11-20T10:45:18.687Z,21.95
2018-11-20T10:46:36.792Z,18.25
2018-11-20T10:48:01.454Z,22.93
2018-11-20T10:49:23.159Z,19.95
2018-11-20T10:50:52.009Z,20.70
2018-11-20T10:52:15.466Z,21.40
2018-11-20T10:53:43.646Z,20.43
2018-11-20T10:55:07.519Z,18.50
2018-11-20T10:56:31.865Z,21.23
2018-11-20T10:58:00.026Z,18.02
2018-11-20T10:59:22.836Z,18.23
2018-11-20T11:00:44.873Z,23.47
2018-11-20T11:02:09.961Z,19.92
2018-11-20T11:03:34.571Z,23.47
2018-11-20T11:04:56.472Z,18.32
2018-11-20T11:06:22.476Z,19.02
2018-11-20T11:07:46.989Z,24.70
2018-11-20T11:09:13.015Z,19.20
2018-11-20T11:10:40.907Z,21.33
2018-11-20T11:12:02.682Z,19.70
2018-11-20T11:13:24.758Z,22.27
2018-11-20T11:14:46.933Z,20.60
2018-11-20T11:16:20.881Z,19.67
2018-11-20T11:17:52.738Z,19.57
2018-11-20T11:19:17.473Z,18.60
2018-11-20T11:20:45.731Z,17.82
2018-11-20T11:22:02.080Z,16.65
2018-11-20T11:23:30.595Z,19.27
2018-11-20T11:24:58.324Z,18.40
2018-11-20T11:26:35.043Z,21.85
2018-11-20T11:28:08.582Z,18.23
2018-11-20T11:29:46.734Z,20.88
2018-11-20T11:31:08.501Z,18.57
2018-11-20T11:32:39.453Z,27.00
2018-11-20T11:34:08.030Z,21.95
2018-11-20T11:35:33.027Z,15.25
2018-11-20T11:37:09.184Z,23.07
2018-11-20T11:38:38.738Z,15.08
2018-11-20T11:40:15.662Z,20.77
2018-11-20T11:41:47.603Z,21.90
2018-11-20T11:43:05.517Z,16.30
2018-11-20T11:44:46.659Z,21.57
2018-11-20T11:46:19.935Z,19.98
2018-11-20T11:47:41.971Z,18.60
2018-11-20T11:49:17.211Z,17.98
2018-11-20T11:50:52.417Z,25.65
2018-11-20T11:52:18.486Z,21.23
2018-11-20T11:53:38.034Z,18.92
2018-11-20T11:54:59.690Z,19.17
2018-11-20T11:56:21.481Z,18.55
2018-11-20T11:57:43.447Z,19.80
2018-11-20T11:59:05.497Z,19.45
2018-11-20T12:00:24.370Z,19.75
2018-11-20T12:04:30.131Z,17.98
2018-11-20T12:05:55.977Z,17.17
2018-11-20T12:07:22.524Z,16.42
2018-11-20T12:08:45.908Z,17.60
2018-11-20T12:10:12.167Z,18.80
2018-11-20T12:11:32.454Z,18.37
2018-11-20T12:14:38.837Z,18.45
2018-11-20T12:16:04.338Z,17.50
2018-11-20T12:17:18.005Z,17.67
2018-11-20T12:18:39.601Z,17.82
2018-11-20T12:20:02.959Z,13.60
2018-11-20T12:21:24.489Z,17.67
2018-11-20T12:22:54.000Z,19.82
2018-11-20T12:24:29.400Z,17.07
2018-11-20T12:25:43.508Z,20.35
2018-11-20T12:27:00.345Z,17.50
2018-11-20T12:28:29.308Z,17.90
2018-11-20T12:30:01.717Z,17.48
2018-11-20T12:31:28.721Z,19.87
2018-11-20T12:32:52.275Z,21.95
2018-11-20T12:34:13.104Z,17.40
2018-11-20T12:35:36.138Z,16.25
2018-11-20T12:36:58.257Z,19.30
2018-11-20T12:38:21.426Z,18.92
2018-11-20T12:39:47.740Z,16.93
2018-11-20T12:41:11.086Z,18.80
2018-11-20T12:42:24.883Z,22.45
2018-11-20T12:43:48.512Z,23.55
2018-11-20T12:45:13.529Z,20.02
2018-11-20T12:46:35.425Z,20.82
2018-11-20T12:47:58.576Z,19.37
2018-11-20T12:49:32.151Z,21.20
2018-11-20T12:51:05.471Z,21.50
2018-11-20T12:52:36.507Z,20.12
2018-11-20T12:54:03.403Z,19.95
2018-11-20T12:55:25.695Z,17.02
2018-11-20T12:56:57.710Z,13.43
2018-11-20T12:58:21.097Z,17.15
2018-11-20T12:59:56.546Z,19.42
2018-11-20T13:01:24.857Z,23.07
2018-11-20T13:02:46.525Z,19.37
2018-11-20T13:04:08.905Z,22.27
2018-11-20T13:05:30.178Z,20.65
2018-11-20T13:06:46.942Z,21.50
2018-11-20T13:08:04.563Z,20.00
2018-11-20T13:09:33.238Z,20.65
2018-11-20T13:11:00.688Z,19.45
2018-11-20T13:12:27.503Z,18.60
2018-11-20T13:13:50.248Z,16.62
2018-11-20T13:15:30.600Z,15.55
2018-11-20T13:17:13.684Z,20.05
2018-11-20T13:18:33.998Z,18.10
2018-11-20T13:20:00.805Z,20.65
2018-11-20T13:21:17.493Z,21.45
2018-11-20T13:22:39.716Z,21.60
2018-11-20T13:24:18.028Z,21.45
2018-11-20T13:25:56.193Z,20.15
2018-11-20T13:27:17.901Z,20.55
2018-11-20T13:28:44.266Z,19.77
2018-11-20T13:30:10.464Z,16.60
2018-11-20T13:31:32.726Z,22.85
2018-11-20T13:32:54.322Z,24.40
2018-11-20T13:34:25.324Z,17.98
2018-11-20T13:36:03.585Z,21.75
2018-11-20T13:37:37.489Z,19.02
2018-11-20T13:38:49.835Z,23.00
2018-11-20T13:40:13.225Z,23.62
2018-11-20T13:41:58.941Z,20.95
2018-11-20T13:43:12.893Z,20.40
2018-11-20T13:44:44.965Z,19.05
2018-11-20T13:46:20.206Z,18.85
2018-11-20T13:47:43.573Z,19.98
2018-11-20T13:49:11.926Z,24.30
2018-11-20T13:50:33.467Z,22.20
2018-11-20T13:52:11.990Z,19.75
2018-11-20T13:53:37.745Z,20.43
2018-11-20T13:54:53.174Z,22.67
2018-11-20T13:56:16.469Z,20.37
2018-11-20T13:57:38.725Z,19.25
2018-11-20T13:59:00.239Z,24.85
2018-11-20T14:00:21.997Z,22.87
2018-11-20T14:02:03.526Z,22.85
2018-11-20T14:03:22.080Z,23.12
2018-11-20T14:04:57.433Z,21.93
2018-11-20T14:06:29.675Z,19.52
2018-11-20T14:07:51.438Z,19.67
2018-11-20T14:09:13.528Z,21.62
2018-11-20T14:10:33.392Z,20.00
2018-11-20T14:11:59.402Z,22.22
2018-11-20T14:13:29.019Z,21.62
2018-11-20T14:14:50.189Z,20.08
2018-11-20T14:16:25.371Z,23.05
2018-11-20T14:17:54.779Z,19.12
2018-11-20T14:19:30.123Z,20.32
2018-11-20T14:21:08.232Z,20.75
2018-11-20T14:22:46.374Z,17.17
2018-11-20T14:24:13.113Z,21.35
2018-11-20T14:26:00.277Z,21.90
2018-11-20T14:27:42.505Z,21.20
2018-11-20T14:29:24.343Z,22.13
2018-11-20T14:30:42.331Z,20.40
2018-11-20T14:32:11.311Z,23.02
2018-11-20T14:33:33.170Z,23.18
2018-11-20T14:34:54.893Z,19.40
2018-11-20T14:36:16.944Z,23.10
2018-11-20T14:37:43.099Z,22.07
2018-11-20T14:39:05.230Z,22.20
2018-11-20T14:40:23.876Z,22.90
2018-11-20T14:41:59.307Z,24.63
2018-11-20T14:43:21.358Z,23.25
2018-11-20T14:44:56.446Z,24.15
2018-11-20T14:46:25.758Z,23.62
2018-11-20T14:48:04.060Z,21.60
2018-11-20T14:49:30.389Z,22.48
2018-11-20T14:50:56.736Z,20.00
2018-11-20T14:52:34.967Z,20.70
2018-11-20T14:53:56.958Z,23.70
2018-11-20T14:55:25.932Z,20.00
2018-11-20T14:57:04.383Z,20.68
2018-11-20T14:58:33.737Z,22.77
2018-11-20T14:59:55.494Z,21.35
2018-11-20T15:01:30.568Z,22.27
2018-11-20T15:02:54.612Z,20.92
2018-11-20T15:04:17.968Z,19.20
2018-11-20T15:05:46.929Z,22.82
2018-11-20T15:07:14.102Z,20.05
2018-11-20T15:08:38.735Z,25.37
2018-11-20T15:10:06.541Z,22.02
2018-11-20T15:11:30.814Z,19.10
2018-11-20T15:15:10.201Z,17.10
2018-11-20T15:16:38.998Z,20.37
2018-11-20T15:18:18.269Z,16.23
2018-11-20T15:19:43.756Z,16.52
2018-11-20T15:21:34.272Z,22.32
2018-11-20T15:22:57.317Z,17.67
2018-11-20T15:24:31.014Z,18.32
2018-11-20T15:26:10.363Z,21.40
2018-11-20T15:27:49.476Z,21.05
2018-11-20T15:29:16.295Z,16.17
2018-11-20T15:30:47.011Z,16.55
2018-11-20T15:32:12.121Z,17.82
2018-11-20T15:33:36.676Z,18.67
2018-11-20T15:35:15.894Z,21.37
2018-11-20T15:36:48.366Z,23.67
2018-11-20T15:38:13.403Z,16.80
2018-11-20T15:39:37.258Z,15.83
2018-11-20T15:41:06.996Z,19.73
2018-11-20T15:42:37.002Z,17.70
2018-11-20T15:44:09.741Z,13.00
2018-11-20T15:45:54.088Z,16.32
2018-11-20T15:47:15.508Z,17.20
2018-11-20T15:49:10.392Z,14.05
2018-11-20T15:50:53.511Z,16.15
2018-11-20T15:52:22.905Z,16.73
2018-11-20T15:54:03.157Z,17.73
2018-11-20T15:55:31.626Z,18.37
2018-11-20T15:56:53.928Z,14.85
2018-11-20T15:58:18.235Z,12.03
2018-11-20T15:59:44.868Z,14.95
2018-11-20T16:01:07.121Z,10.32
2018-11-20T16:02:39.773Z,12.58
2018-11-20T16:04:05.989Z,11.45
2018-11-20T16:05:47.124Z,11.22
2018-11-20T16:07:32.165Z,9.63
2018-11-20T16:09:07.701Z,8.28
2018-11-20T16:10:43.447Z,8.58
2018-11-20T16:12:15.621Z,12.30
2018-11-20T16:13:53.761Z,8.88
2018-11-20T16:15:22.332Z,6.42
2018-11-20T16:17:16.403Z,7.58
2018-11-20T16:18:45.653Z,8.40
2018-11-20T16:20:17.787Z,6.70
2018-11-20T16:21:44.418Z,10.18
2018-11-20T16:23:07.059Z,8.35
2018-11-20T16:24:33.285Z,8.80
2018-11-20T16:25:55.436Z,8.70
2018-11-20T16:27:15.256Z,8.90
2018-11-20T16:28:38.609Z,6.85
2018-11-20T16:30:17.017Z,6.28
2018-11-20T16:31:41.763Z,7.33
2018-11-20T16:33:00.110Z,7.85
2018-11-20T16:34:25.991Z,7.50
2018-11-20T16:35:49.340Z,9.43
2018-11-20T16:37:10.953Z,9.58
2018-11-20T16:38:44.510Z,9.28
2018-11-20T16:40:06.386Z,6.87
2018-11-20T16:41:28.127Z,9.03
2018-11-20T16:43:06.209Z,7.97
2018-11-20T16:44:36.721Z,9.30
2018-11-20T16:45:58.693Z,8.20
2018-11-20T16:47:27.825Z,7.85
2018-11-20T16:48:51.197Z,8.50
2018-11-20T16:50:13.029Z,8.98
2018-11-20T16:51:45.193Z,7.55
2018-11-20T16:53:14.555Z,9.10
2018-11-20T16:54:37.929Z,10.88
2018-11-20T16:56:03.980Z,10.23
2018-11-20T16:57:45.129Z,9.43
2018-11-20T16:59:10.018Z,7.72
2018-11-20T17:00:42.038Z,8.08
2018-11-20T17:02:08.149Z,6.72
2018-11-20T17:03:29.927Z,9.38
2018-11-20T17:04:51.550Z,6.60
2018-11-20T17:06:03.891Z,10.18
2018-11-20T17:07:38.973Z,7.40
2018-11-20T17:09:08.378Z,7.80
2018-11-20T17:10:49.701Z,8.90
2018-11-20T17:12:08.948Z,8.40
2018-11-20T17:13:44.207Z,8.20
2018-11-20T17:15:06.020Z,9.65
2018-11-20T17:16:44.184Z,7.50
2018-11-20T17:17:59.363Z,9.30
2018-11-20T17:19:28.995Z,8.85
2018-11-20T17:20:52.332Z,9.93
2018-11-20T17:22:11.985Z,12.03
2018-11-20T17:23:38.072Z,9.23
2018-11-20T17:25:00.096Z,10.98
2018-11-20T17:26:17.436Z,7.40
2018-11-20T17:27:46.717Z,8.75
2018-11-20T17:29:13.044Z,8.30
2018-11-20T17:30:34.890Z,8.38
2018-11-20T17:31:56.719Z,8.15
2018-11-20T17:33:18.316Z,8.38
2018-11-20T17:34:47.370Z,10.30
2018-11-20T17:36:09.251Z,8.75
2018-11-20T17:37:34.897Z,8.63
2018-11-20T17:38:57.571Z,9.30
2018-11-20T17:40:21.097Z,8.88
2018-11-20T17:41:41.129Z,9.70
2018-11-20T17:43:07.289Z,9.50
2018-11-20T17:44:29.045Z,9.58
2018-11-20T17:45:52.402Z,10.70
2018-11-20T17:47:15.815Z,9.05
2018-11-20T17:48:45.914Z,11.15
2018-11-20T17:50:20.686Z,8.75
2018-11-20T17:51:49.963Z,9.65
2018-11-20T17:53:04.192Z,9.18
2018-11-20T17:54:17.967Z,9.88
2018-11-20T17:55:40.073Z,12.30
2018-11-20T17:57:03.574Z,9.83
2018-11-20T17:58:29.838Z,8.63
2018-11-20T17:59:43.706Z,10.48
2018-11-20T18:01:05.474Z,11.35
2018-11-20T18:02:24.256Z,12.33
2018-11-20T18:03:46.274Z,10.95
2018-11-20T18:05:08.204Z,9.23
2018-11-20T18:06:40.627Z,10.63
2018-11-20T18:08:04.310Z,8.75
2018-11-20T18:09:34.788Z,10.60
2018-11-20T18:10:56.638Z,10.95
2018-11-20T18:12:18.723Z,10.32
2018-11-20T18:13:44.820Z,8.25
2018-11-20T18:15:20.348Z,11.30
2018-11-20T18:16:46.638Z,8.98
2018-11-20T18:18:10.283Z,12.07
2018-11-20T18:19:32.529Z,11.43
2018-11-20T18:20:57.052Z,12.40
2018-11-20T18:22:24.320Z,10.00
2018-11-20T18:23:53.825Z,13.03
2018-11-20T18:25:17.482Z,12.82
2018-11-20T18:26:52.374Z,14.90
2018-11-20T18:28:21.871Z,11.25
2018-11-20T18:29:42.773Z,13.68
2018-11-20T18:31:01.006Z,12.90
2018-11-20T18:32:37.494Z,10.28
2018-11-20T18:33:57.139Z,11.45
2018-11-20T18:35:23.393Z,10.00
2018-11-20T18:36:49.757Z,12.55
2018-11-20T18:38:22.857Z,10.88
2018-11-20T18:39:45.156Z,12.23
2018-11-20T18:41:07.070Z,10.20
2018-11-20T18:42:29.184Z,11.08
2018-11-20T18:44:04.765Z,10.82
2018-11-20T18:45:27.150Z,11.03
2018-11-20T18:46:50.581Z,10.23
2018-11-20T18:48:16.792Z,12.00
2018-11-20T18:49:38.717Z,9.75
2018-11-20T18:51:11.129Z,12.10
2018-11-20T18:52:33.263Z,12.50
2018-11-20T18:54:11.762Z,10.63
2018-11-20T18:55:46.839Z,10.65
2018-11-20T18:57:15.834Z,12.07
2018-11-20T18:58:39.211Z,13.62
2018-11-20T18:59:57.613Z,11.90
2018-11-20T19:01:19.307Z,12.60
2018-11-20T19:02:47.006Z,12.15
2018-11-20T19:04:10.335Z,12.15
2018-11-20T19:05:42.579Z,10.10
2018-11-20T19:07:08.642Z,11.50
2018-11-20T19:08:30.486Z,12.05
2018-11-20T19:10:02.446Z,13.05
2018-11-20T19:11:31.593Z,14.00
2018-11-20T19:12:53.360Z,12.75
2018-11-20T19:14:19.500Z,16.85
2018-11-20T19:15:41.118Z,10.63
2018-11-20T19:17:07.175Z,12.58
2018-11-20T19:18:28.866Z,13.10
2018-11-20T19:19:56.248Z,12.28
2018-11-20T19:21:18.322Z,12.88
2018-11-20T19:22:44.297Z,12.13
2018-11-20T19:24:06.483Z,13.15
2018-11-20T19:25:28.382Z,15.00
2018-11-20T19:26:51.735Z,13.62
2018-11-20T19:28:23.963Z,15.43
2018-11-20T19:29:50.098Z,14.30
2018-11-20T19:31:15.994Z,12.65
2018-11-20T19:32:42.445Z,11.73
2018-11-20T19:34:05.771Z,11.68
2018-11-20T19:35:35.876Z,12.53
2018-11-20T19:37:11.046Z,13.35
2018-11-20T19:38:40.171Z,14.53
2018-11-20T19:40:03.526Z,14.15
2018-11-20T19:41:29.469Z,13.00
2018-11-20T19:42:52.469Z,11.30
2018-11-20T19:44:20.245Z,14.07
2018-11-20T19:45:36.749Z,14.85
2018-11-20T19:47:02.773Z,13.95
2018-11-20T19:48:25.303Z,16.80
2018-11-20T19:49:47.107Z,13.10
2018-11-20T19:51:10.589Z,15.00
2018-11-20T19:52:26.836Z,12.78
2018-11-20T19:53:50.476Z,15.30
2018-11-20T19:55:19.721Z,15.15
2018-11-20T19:56:58.312Z,13.38
2018-11-20T19:58:36.584Z,14.28
2018-11-20T19:59:58.588Z,14.98
2018-11-20T20:01:20.295Z,14.73
2018-11-20T20:02:58.880Z,11.20
2018-11-20T20:04:32.542Z,15.28
2018-11-20T20:05:51.363Z,18.80
2018-11-20T20:07:17.549Z,16.57
2018-11-20T20:08:44.124Z,14.95
2018-11-20T20:10:13.312Z,14.80
2018-11-20T20:11:35.181Z,13.45
2018-11-20T20:12:56.903Z,12.07
2018-11-20T20:14:20.272Z,16.67
2018-11-20T20:15:52.456Z,14.73
2018-11-20T20:17:15.804Z,11.57
2018-11-20T20:18:48.258Z,15.68
2018-11-20T20:20:15.714Z,14.93
2018-11-20T20:21:30.401Z,15.90
2018-11-20T20:23:09.168Z,15.03
2018-11-20T20:24:50.536Z,18.50
2018-11-20T20:26:25.953Z,13.85
2018-11-20T20:28:04.354Z,17.05
2018-11-20T20:29:30.807Z,14.68
2018-11-20T20:30:54.134Z,16.12
2018-11-20T20:32:10.765Z,16.45
2018-11-20T20:33:21.881Z,18.65
2018-11-20T20:34:45.211Z,20.62
2018-11-20T20:36:20.585Z,18.25
2018-11-20T20:37:49.580Z,19.77
2018-11-20T20:39:11.326Z,15.23
2018-11-20T20:40:33.092Z,18.67
2018-11-20T20:41:56.418Z,16.95
2018-11-20T20:43:22.807Z,16.67
2018-11-20T20:44:59.563Z,20.77
2018-11-20T20:46:27.619Z,18.92
2018-11-20T20:47:53.664Z,17.00
2018-11-20T20:49:17.018Z,18.55
2018-11-20T20:50:38.495Z,17.20
2018-11-20T20:51:56.855Z,16.52
2018-11-20T20:53:37.957Z,19.32
2018-11-20T20:54:59.771Z,15.95
2018-11-20T20:56:23.142Z,16.75
2018-11-20T20:57:44.755Z,14.80
2018-11-20T20:59:06.504Z,18.85
2018-11-20T21:00:39.607Z,15.58
2018-11-20T21:02:06.038Z,15.83
2018-11-20T21:03:27.861Z,15.05
2018-11-20T21:04:57.126Z,15.65
2018-11-20T21:06:35.653Z,15.18
2018-11-20T21:08:08.073Z,16.12
2018-11-20T21:09:34.042Z,16.37
2018-11-20T21:11:06.357Z,16.23
2018-11-20T21:12:28.333Z,17.65
2018-11-20T21:13:52.669Z,20.77
2018-11-20T21:15:20.900Z,17.67
2018-11-20T21:16:57.552Z,16.12
2018-11-20T21:18:20.926Z,17.35
2018-11-20T21:19:42.876Z,14.68
2018-11-20T21:21:15.634Z,18.10
2018-11-20T21:22:33.286Z,16.23
2018-11-20T21:23:59.634Z,17.85
2018-11-20T21:25:23.444Z,17.00
2018-11-20T21:26:52.560Z,15.05
2018-11-20T21:28:16.321Z,16.95
2018-11-20T21:29:48.621Z,16.17
2018-11-20T21:31:14.662Z,15.98
2018-11-20T21:32:48.354Z,17.02
2018-11-20T21:34:03.398Z,19.23
2018-11-20T21:35:26.833Z,17.48
2018-11-20T21:36:45.014Z,15.75
2018-11-20T21:38:08.674Z,14.03
2018-11-20T21:39:34.551Z,15.10
2018-11-20T21:41:10.072Z,15.38
2018-11-20T21:42:48.385Z,16.17
2018-11-20T21:44:11.793Z,19.27
2018-11-20T21:45:33.730Z,16.02
2018-11-20T21:46:55.512Z,17.32
2018-11-20T21:48:10.599Z,14.98
2018-11-20T21:49:48.726Z,19.57
2018-11-20T21:51:18.795Z,15.95
2018-11-20T21:52:57.086Z,16.48
2018-11-20T21:54:38.648Z,16.00
2018-11-20T21:56:00.657Z,15.72
2018-11-20T21:57:29.732Z,14.70
2018-11-20T21:59:03.677Z,17.25
2018-11-20T22:01:07.983Z,17.50
2018-11-20T22:02:46.430Z,16.70
2018-11-20T22:04:09.786Z,16.52
2018-11-20T22:05:31.963Z,16.02
2018-11-20T22:07:04.024Z,16.20
2018-11-20T22:08:42.287Z,16.10
2018-11-20T22:10:20.531Z,15.58
2018-11-20T22:11:44.145Z,14.50
2018-11-20T22:13:10.438Z,15.53
2018-11-20T22:14:32.990Z,14.95
2018-11-20T22:15:56.409Z,15.72
2018-11-20T22:17:28.227Z,18.30
2018-11-20T22:19:00.650Z,15.98
2018-11-20T22:20:23.032Z,15.50
2018-11-20T22:21:49.273Z,15.43
2018-11-20T22:23:15.181Z,17.87
2018-11-20T22:25:05.227Z,17.87
2018-11-20T22:26:39.340Z,14.73
2018-11-20T22:44:14.263Z,16.27
2018-11-20T22:45:35.428Z,17.12
2018-11-20T22:46:59.672Z,17.90
2018-11-20T22:48:20.766Z,15.98
2018-11-20T22:49:48.954Z,14.05
2018-11-20T22:51:10.311Z,13.62
2018-11-20T22:52:31.379Z,16.62
2018-11-20T22:53:45.741Z,13.83
2018-11-20T22:55:06.841Z,16.02
2018-11-20T22:56:20.614Z,13.53
2018-11-20T22:57:34.964Z,17.35
2018-11-20T22:58:52.401Z,15.15
2018-11-20T23:00:14.957Z,15.20
2018-11-20T23:01:40.435Z,13.05
2018-11-20T23:02:54.614Z,13.48
2018-11-20T23:04:17.551Z,13.95
2018-11-20T23:05:44.849Z,13.05
2018-11-20T23:07:09.233Z,13.08
2018-11-20T23:08:12.788Z,14.03
2018-11-20T23:09:16.564Z,12.47
2018-11-20T23:10:20.909Z,13.00
2018-11-20T23:11:24.337Z,14.35
2018-11-20T23:12:27.754Z,13.30
2018-11-20T23:13:31.612Z,13.48
2018-11-20T23:14:35.043Z,13.78
2018-11-20T23:15:38.446Z,12.50
2018-11-20T23:16:42.283Z,14.35
2018-11-20T23:17:45.688Z,12.68
2018-11-20T23:18:49.480Z,14.40
2018-11-20T23:19:53.228Z,14.53
2018-11-20T23:20:57.003Z,13.58
2018-11-20T23:22:00.808Z,12.78
2018-11-20T23:23:04.579Z,12.55
2018-11-20T23:24:08.025Z,14.25
2018-11-20T23:25:12.726Z,12.43
2018-11-20T23:26:16.164Z,12.28
2018-11-20T23:27:19.596Z,13.93
2018-11-20T23:28:23.054Z,14.63
2018-11-20T23:29:26.809Z,13.62
2018-11-20T23:30:30.205Z,12.10
2018-11-20T23:31:33.617Z,14.53
2018-11-20T23:32:37.347Z,14.65
2018-11-20T23:33:41.052Z,13.25
2018-11-20T23:34:44.745Z,13.00
2018-11-20T23:35:48.160Z,16.02
2018-11-20T23:36:51.569Z,12.35
2018-11-20T23:37:54.953Z,11.57
2018-11-20T23:38:58.677Z,13.60
2018-11-20T23:40:02.394Z,17.98
2018-11-20T23:41:06.028Z,13.00
2018-11-20T23:42:09.451Z,12.68
2018-11-20T23:43:12.881Z,12.55
2018-11-20T23:44:16.368Z,12.85
2018-11-20T23:45:19.783Z,14.18
2018-11-20T23:46:23.263Z,13.95
2018-11-20T23:47:26.709Z,11.48
2018-11-20T23:48:30.433Z,14.00
2018-11-20T23:49:34.174Z,14.53
2018-11-20T23:50:37.591Z,13.70
2018-11-20T23:51:41.365Z,13.80
2018-11-20T23:52:44.846Z,14.58
2018-11-20T23:53:49.005Z,14.87
2018-11-20T23:54:52.769Z,14.83
2018-11-20T23:55:56.235Z,14.25
2018-11-20T23:56:59.665Z,14.10
2018-11-20T23:58:03.109Z,13.08
2018-11-20T23:59:06.509Z,14.47
